createdAt,value
2017-08-06T00:00:52.238Z,66.75
2017-08-06T00:01:48.524Z,66.72
2017-08-06T00:02:44.783Z,66.81
2017-08-06T00:03:41.046Z,66.78
2017-08-06T00:04:37.347Z,66.91
2017-08-06T00:05:33.604Z,67.03
2017-08-06T00:06:29.863Z,67.04
2017-08-06T00:07:26.135Z,67.22
2017-08-06T00:08:22.375Z,67.34
2017-08-06T00:09:18.626Z,67.33
2017-08-06T00:10:14.892Z,67.37
2017-08-06T00:11:11.145Z,67.37
2017-08-06T00:12:07.396Z,67.30
2017-08-06T00:13:03.651Z,67.42
2017-08-06T00:13:59.908Z,67.53
2017-08-06T00:14:56.179Z,67.56
2017-08-06T00:15:52.427Z,67.69
2017-08-06T00:16:48.667Z,67.81
2017-08-06T00:17:44.923Z,67.92
2017-08-06T00:18:41.176Z,68.00
2017-08-06T00:19:37.431Z,67.97
2017-08-06T00:20:33.699Z,68.07
2017-08-06T00:21:29.951Z,68.20
2017-08-06T00:22:26.199Z,68.14
2017-08-06T00:23:22.445Z,68.26
2017-08-06T00:24:18.691Z,68.39
2017-08-06T00:25:14.947Z,68.36
2017-08-06T00:26:11.207Z,68.42
2017-08-06T00:27:07.468Z,68.48
2017-08-06T00:28:03.718Z,68.61
2017-08-06T00:28:59.968Z,68.70
2017-08-06T00:29:56.229Z,68.75
2017-08-06T00:30:52.501Z,68.86
2017-08-06T00:31:48.756Z,68.95
2017-08-06T00:32:45.003Z,69.00
2017-08-06T00:33:41.251Z,69.10
2017-08-06T00:34:37.487Z,69.04
2017-08-06T00:35:33.757Z,69.20
2017-08-06T00:36:30.000Z,69.30
2017-08-06T00:37:26.248Z,69.29
2017-08-06T00:38:22.495Z,69.39
2017-08-06T00:39:18.735Z,69.41
2017-08-06T00:40:14.974Z,69.53
2017-08-06T00:41:11.239Z,69.55
2017-08-06T00:42:07.487Z,69.67
2017-08-06T00:43:03.727Z,69.76
2017-08-06T00:43:59.974Z,69.79
2017-08-06T00:44:56.214Z,69.94
2017-08-06T00:45:52.456Z,69.84
2017-08-06T00:46:48.719Z,69.99
2017-08-06T00:47:44.966Z,70.04
2017-08-06T00:48:41.211Z,70.10
2017-08-06T00:49:37.454Z,70.28
2017-08-06T00:50:33.708Z,70.24
2017-08-06T00:51:29.967Z,70.21
2017-08-06T00:52:26.208Z,70.38
2017-08-06T00:53:22.462Z,70.50
2017-08-06T00:54:18.704Z,70.52
2017-08-06T00:55:14.956Z,70.63
2017-08-06T00:56:11.216Z,70.72
2017-08-06T00:57:07.459Z,70.80
2017-08-06T00:58:03.700Z,70.68
2017-08-06T00:58:59.943Z,70.80
2017-08-06T00:59:56.183Z,70.96
2017-08-06T01:00:52.427Z,71.08
2017-08-06T01:01:48.692Z,71.15
2017-08-06T01:02:44.936Z,71.27
2017-08-06T01:03:41.188Z,71.17
2017-08-06T01:04:37.431Z,71.38
2017-08-06T01:05:33.671Z,71.29
2017-08-06T01:06:29.911Z,71.52
2017-08-06T01:07:26.175Z,71.57
2017-08-06T01:08:22.415Z,71.88
2017-08-06T01:09:18.660Z,71.78
2017-08-06T01:10:14.908Z,71.95
2017-08-06T01:11:11.151Z,71.93
2017-08-06T01:12:07.415Z,72.04
2017-08-06T01:13:03.687Z,72.03
2017-08-06T01:13:59.938Z,72.18
2017-08-06T01:14:56.183Z,72.10
2017-08-06T01:15:52.428Z,72.23
2017-08-06T01:16:48.688Z,72.35
2017-08-06T01:17:44.987Z,72.35
2017-08-06T01:18:41.230Z,72.26
2017-08-06T01:19:37.726Z,72.44
2017-08-06T01:20:33.978Z,72.46
2017-08-06T01:21:30.222Z,72.43
2017-08-06T01:22:26.475Z,72.64
2017-08-06T01:23:23.073Z,72.75
2017-08-06T01:24:19.318Z,72.76
2017-08-06T01:25:15.547Z,72.82
2017-08-06T01:26:11.803Z,72.82
2017-08-06T01:27:08.042Z,72.90
2017-08-06T01:28:04.298Z,72.98
2017-08-06T01:29:00.539Z,73.08
2017-08-06T01:29:56.795Z,73.03
2017-08-06T01:30:53.034Z,73.14
2017-08-06T01:31:49.279Z,73.16
2017-08-06T01:32:45.531Z,73.14
2017-08-06T01:33:41.795Z,73.23
2017-08-06T01:34:38.031Z,73.37
2017-08-06T01:35:34.279Z,73.35
2017-08-06T01:36:30.523Z,73.33
2017-08-06T01:37:26.770Z,73.49
2017-08-06T01:38:23.026Z,73.52
2017-08-06T01:39:19.264Z,73.53
2017-08-06T01:40:15.523Z,73.63
2017-08-06T01:41:11.763Z,73.75
2017-08-06T01:42:08.004Z,73.76
2017-08-06T01:43:04.288Z,73.82
2017-08-06T01:44:00.537Z,73.92
2017-08-06T01:44:56.795Z,73.98
2017-08-06T01:45:53.039Z,73.97
2017-08-06T01:46:49.291Z,74.00
2017-08-06T01:47:45.530Z,74.04
2017-08-06T01:48:41.802Z,74.07
2017-08-06T01:49:38.055Z,74.15
2017-08-06T01:50:34.295Z,74.24
2017-08-06T01:51:30.539Z,74.22
2017-08-06T01:52:26.780Z,74.16
2017-08-06T01:53:23.031Z,74.30
2017-08-06T01:54:19.294Z,74.30
2017-08-06T01:55:15.540Z,74.33
2017-08-06T01:56:11.774Z,74.38
2017-08-06T01:57:08.013Z,74.51
2017-08-06T01:58:04.266Z,74.56
2017-08-06T01:59:00.524Z,74.63
2017-08-06T01:59:56.770Z,74.67
2017-08-06T02:00:53.003Z,74.66
2017-08-06T02:01:49.238Z,74.79
2017-08-06T02:02:45.479Z,74.84
2017-08-06T02:03:41.732Z,74.87
2017-08-06T02:04:38.003Z,74.92
2017-08-06T02:05:34.252Z,75.03
2017-08-06T02:06:30.503Z,75.04
2017-08-06T02:07:26.755Z,75.04
2017-08-06T02:08:22.995Z,75.07
2017-08-06T02:09:19.235Z,75.14
2017-08-06T02:10:15.499Z,75.16
2017-08-06T02:11:11.738Z,75.20
2017-08-06T02:12:07.981Z,75.16
2017-08-06T02:13:04.331Z,75.19
2017-08-06T02:14:00.567Z,75.24
2017-08-06T02:14:56.826Z,75.33
2017-08-06T02:15:53.070Z,75.31
2017-08-06T02:16:49.311Z,75.35
2017-08-06T02:17:45.563Z,75.43
2017-08-06T02:18:41.809Z,75.47
2017-08-06T02:19:38.063Z,75.39
2017-08-06T02:20:34.348Z,75.42
2017-08-06T02:21:30.594Z,75.42
2017-08-06T02:22:26.827Z,75.43
2017-08-06T02:23:23.067Z,75.51
2017-08-06T02:24:19.324Z,75.55
2017-08-06T02:25:15.558Z,75.58
2017-08-06T02:26:11.827Z,75.60
2017-08-06T02:27:08.083Z,75.64
2017-08-06T02:28:04.331Z,75.71
2017-08-06T02:29:00.582Z,75.67
2017-08-06T02:29:56.835Z,75.68
2017-08-06T02:30:53.118Z,75.75
2017-08-06T02:31:49.379Z,75.76
2017-08-06T02:32:45.654Z,75.81
2017-08-06T02:33:41.899Z,75.80
2017-08-06T02:34:38.139Z,75.82
2017-08-06T02:35:34.389Z,75.85
2017-08-06T02:36:30.651Z,75.94
2017-08-06T02:37:26.912Z,75.98
2017-08-06T02:38:23.296Z,76.01
2017-08-06T02:39:19.539Z,76.10
2017-08-06T02:40:15.803Z,76.11
2017-08-06T02:41:12.068Z,76.09
2017-08-06T02:42:08.336Z,76.12
2017-08-06T02:43:04.600Z,76.15
2017-08-06T02:44:00.847Z,76.22
2017-08-06T02:44:57.103Z,76.29
2017-08-06T02:45:53.360Z,76.32
2017-08-06T02:46:49.640Z,76.35
2017-08-06T02:47:45.890Z,76.37
2017-08-06T02:48:42.138Z,76.42
2017-08-06T02:49:38.399Z,76.49
2017-08-06T02:50:34.652Z,76.43
2017-08-06T02:51:30.932Z,76.49
2017-08-06T02:52:27.187Z,76.52
2017-08-06T02:53:23.464Z,76.54
2017-08-06T02:54:19.728Z,76.51
2017-08-06T02:55:15.999Z,76.53
2017-08-06T02:56:12.277Z,76.49
2017-08-06T02:57:08.560Z,76.52
2017-08-06T02:58:04.815Z,76.51
2017-08-06T02:59:01.068Z,76.44
2017-08-06T02:59:57.347Z,76.49
2017-08-06T03:00:53.614Z,76.55
2017-08-06T03:01:49.876Z,76.55
2017-08-06T03:02:46.147Z,76.57
2017-08-06T03:03:42.413Z,76.57
2017-08-06T03:04:38.667Z,76.64
2017-08-06T03:05:34.927Z,76.64
2017-08-06T03:06:31.205Z,76.70
2017-08-06T03:07:27.455Z,76.78
2017-08-06T03:08:23.735Z,76.85
2017-08-06T03:09:19.983Z,76.91
2017-08-06T03:10:16.251Z,76.91
2017-08-06T03:11:12.530Z,76.92
2017-08-06T03:12:08.790Z,76.97
2017-08-06T03:13:05.076Z,77.02
2017-08-06T03:14:01.339Z,77.07
2017-08-06T03:14:57.592Z,77.04
2017-08-06T03:15:53.847Z,77.10
2017-08-06T03:16:50.096Z,77.14
2017-08-06T03:17:46.355Z,77.12
2017-08-06T03:18:42.634Z,77.13
2017-08-06T03:19:38.890Z,77.19
2017-08-06T03:20:35.151Z,77.12
2017-08-06T03:21:31.407Z,77.16
2017-08-06T03:22:27.663Z,77.24
2017-08-06T03:23:23.931Z,77.25
2017-08-06T03:24:20.191Z,77.24
2017-08-06T03:25:16.455Z,77.33
2017-08-06T03:26:12.715Z,77.31
2017-08-06T03:27:08.967Z,77.36
2017-08-06T03:28:05.236Z,77.42
2017-08-06T03:29:01.504Z,77.43
2017-08-06T03:29:57.758Z,77.47
2017-08-06T03:30:54.023Z,77.53
2017-08-06T03:31:50.284Z,77.43
2017-08-06T03:32:46.547Z,77.53
2017-08-06T03:33:42.827Z,77.52
2017-08-06T03:34:39.100Z,77.49
2017-08-06T03:35:35.361Z,77.48
2017-08-06T03:36:31.616Z,77.57
2017-08-06T03:37:27.868Z,77.62
2017-08-06T03:38:24.137Z,77.61
2017-08-06T03:39:20.439Z,77.61
2017-08-06T03:40:16.704Z,77.54
2017-08-06T03:41:12.963Z,77.67
2017-08-06T03:42:09.219Z,77.69
2017-08-06T03:43:05.498Z,77.71
2017-08-06T03:44:01.762Z,77.76
2017-08-06T03:44:58.026Z,77.74
2017-08-06T03:45:54.279Z,77.83
2017-08-06T03:46:50.532Z,77.77
2017-08-06T03:47:46.782Z,77.77
2017-08-06T03:48:43.040Z,77.78
2017-08-06T03:49:39.306Z,77.82
2017-08-06T03:50:35.568Z,77.85
2017-08-06T03:51:31.826Z,77.87
2017-08-06T03:52:28.095Z,77.92
2017-08-06T03:53:24.370Z,77.92
2017-08-06T03:54:20.630Z,77.96
2017-08-06T03:55:16.915Z,77.94
2017-08-06T03:56:13.167Z,78.05
2017-08-06T03:57:09.452Z,77.95
2017-08-06T03:58:05.743Z,77.95
2017-08-06T03:59:02.008Z,78.04
2017-08-06T03:59:58.305Z,78.06
2017-08-06T04:00:54.764Z,78.04
2017-08-06T04:01:51.027Z,78.09
2017-08-06T04:02:47.287Z,78.15
2017-08-06T04:03:43.547Z,78.26
2017-08-06T04:04:39.796Z,78.29
2017-08-06T04:05:36.083Z,78.34
2017-08-06T04:06:32.330Z,78.38
2017-08-06T04:07:28.596Z,78.41
2017-08-06T04:08:24.844Z,78.46
2017-08-06T04:09:21.099Z,78.41
2017-08-06T04:10:17.379Z,78.45
2017-08-06T04:11:13.642Z,78.50
2017-08-06T04:12:09.908Z,78.47
2017-08-06T04:13:06.184Z,78.50
2017-08-06T04:14:02.431Z,78.54
2017-08-06T04:14:58.690Z,78.53
2017-08-06T04:15:54.954Z,78.58
2017-08-06T04:16:51.211Z,78.49
2017-08-06T04:17:47.466Z,78.58
2017-08-06T04:18:43.728Z,78.59
2017-08-06T04:19:39.991Z,78.64
2017-08-06T04:20:36.239Z,78.52
2017-08-06T04:21:32.511Z,78.57
2017-08-06T04:22:28.772Z,78.60
2017-08-06T04:23:25.019Z,78.64
2017-08-06T04:24:21.259Z,78.62
2017-08-06T04:25:17.506Z,78.64
2017-08-06T04:26:13.871Z,78.68
2017-08-06T04:27:10.171Z,78.64
2017-08-06T04:28:06.455Z,78.71
2017-08-06T04:29:02.704Z,78.76
2017-08-06T04:29:58.967Z,78.86
2017-08-06T04:30:55.211Z,78.86
2017-08-06T04:31:51.531Z,78.94
2017-08-06T04:32:47.787Z,78.97
2017-08-06T04:33:44.034Z,79.02
2017-08-06T04:34:40.303Z,79.06
2017-08-06T04:35:36.561Z,78.97
2017-08-06T04:36:32.818Z,79.00
2017-08-06T04:37:29.082Z,79.06
2017-08-06T04:38:25.335Z,79.10
2017-08-06T04:39:21.589Z,79.00
2017-08-06T04:40:17.843Z,79.11
2017-08-06T04:41:14.094Z,79.06
2017-08-06T04:42:10.356Z,79.16
2017-08-06T04:43:06.623Z,79.22
2017-08-06T04:44:02.886Z,79.22
2017-08-06T04:44:59.159Z,79.27
2017-08-06T04:45:55.409Z,79.38
2017-08-06T04:46:51.646Z,79.26
2017-08-06T04:47:47.930Z,79.34
2017-08-06T04:48:44.199Z,79.28
2017-08-06T04:49:40.483Z,79.34
2017-08-06T04:50:36.727Z,79.41
2017-08-06T04:51:32.982Z,79.53
2017-08-06T04:52:29.268Z,79.51
2017-08-06T04:53:25.523Z,79.51
2017-08-06T04:54:21.779Z,79.42
2017-08-06T04:55:18.033Z,79.53
2017-08-06T04:56:14.291Z,79.58
2017-08-06T04:57:10.554Z,79.53
2017-08-06T04:58:06.825Z,79.65
2017-08-06T04:59:03.094Z,79.56
2017-08-06T04:59:59.411Z,79.58
2017-08-06T05:00:55.691Z,79.61
2017-08-06T05:01:51.959Z,79.61
2017-08-06T05:02:48.367Z,79.62
2017-08-06T05:03:44.606Z,79.52
2017-08-06T05:04:40.856Z,79.62
2017-08-06T05:05:37.130Z,79.54
2017-08-06T05:06:33.395Z,79.65
2017-08-06T05:07:29.659Z,79.54
2017-08-06T05:08:25.934Z,79.66
2017-08-06T05:09:22.183Z,79.68
2017-08-06T05:10:18.438Z,79.65
2017-08-06T05:11:14.695Z,79.71
2017-08-06T05:12:10.946Z,79.65
2017-08-06T05:13:07.204Z,79.75
2017-08-06T05:14:03.471Z,79.80
2017-08-06T05:14:59.718Z,79.81
2017-08-06T05:15:55.971Z,79.84
2017-08-06T05:16:52.227Z,79.93
2017-08-06T05:17:48.471Z,79.86
2017-08-06T05:18:44.747Z,79.95
2017-08-06T05:19:40.991Z,79.85
2017-08-06T05:20:37.251Z,79.88
2017-08-06T05:21:33.502Z,79.94
2017-08-06T05:22:29.756Z,79.91
2017-08-06T05:23:26.006Z,79.90
2017-08-06T05:24:22.275Z,79.87
2017-08-06T05:25:18.530Z,79.86
2017-08-06T05:26:14.787Z,79.81
2017-08-06T05:27:11.027Z,79.87
2017-08-06T05:28:07.270Z,79.87
2017-08-06T05:29:03.533Z,79.84
2017-08-06T05:29:59.779Z,79.91
2017-08-06T05:30:56.047Z,79.88
2017-08-06T05:31:52.302Z,79.83
2017-08-06T05:32:48.539Z,79.93
2017-08-06T05:33:44.784Z,79.94
2017-08-06T05:34:41.052Z,79.99
2017-08-06T05:35:37.304Z,79.88
2017-08-06T05:36:33.592Z,79.91
2017-08-06T05:37:29.855Z,79.94
2017-08-06T05:38:26.103Z,79.93
2017-08-06T05:39:22.362Z,79.87
2017-08-06T05:40:18.639Z,79.85
2017-08-06T05:41:14.882Z,79.89
2017-08-06T05:42:11.151Z,79.85
2017-08-06T05:43:07.415Z,79.85
2017-08-06T05:44:03.671Z,79.95
2017-08-06T05:44:59.959Z,79.91
2017-08-06T05:45:56.212Z,79.93
2017-08-06T05:46:52.450Z,79.92
2017-08-06T05:47:48.724Z,79.89
2017-08-06T05:48:44.963Z,79.90
2017-08-06T05:49:41.226Z,79.86
2017-08-06T05:50:37.503Z,79.93
2017-08-06T05:51:33.761Z,79.94
2017-08-06T05:52:30.012Z,80.07
2017-08-06T05:53:26.287Z,80.04
2017-08-06T05:54:22.557Z,80.02
2017-08-06T05:55:18.852Z,80.00
2017-08-06T05:56:15.116Z,80.07
2017-08-06T05:57:11.374Z,80.02
2017-08-06T05:58:07.623Z,80.04
2017-08-06T05:59:03.875Z,80.14
2017-08-06T06:00:00.126Z,80.07
2017-08-06T06:00:56.409Z,80.04
2017-08-06T06:01:52.684Z,80.04
2017-08-06T06:02:48.945Z,80.02
2017-08-06T06:03:45.193Z,80.05
2017-08-06T06:04:41.460Z,80.06
2017-08-06T06:05:37.743Z,80.04
2017-08-06T06:06:34.009Z,80.01
2017-08-06T06:07:30.271Z,79.99
2017-08-06T06:08:26.578Z,80.03
2017-08-06T06:09:25.071Z,80.04
2017-08-06T06:10:21.371Z,80.05
2017-08-06T06:11:17.659Z,80.02
2017-08-06T06:12:13.912Z,80.01
2017-08-06T06:13:10.180Z,79.96
2017-08-06T06:14:06.447Z,79.94
2017-08-06T06:15:02.722Z,79.94
2017-08-06T06:15:59.003Z,79.92
2017-08-06T06:16:55.271Z,79.89
2017-08-06T06:17:51.538Z,79.89
2017-08-06T06:18:47.788Z,79.83
2017-08-06T06:19:44.310Z,79.97
2017-08-06T06:20:40.579Z,79.93
2017-08-06T06:21:36.854Z,79.92
2017-08-06T06:22:33.120Z,79.90
2017-08-06T06:23:29.390Z,79.89
2017-08-06T06:24:25.636Z,79.91
2017-08-06T06:25:21.903Z,79.94
2017-08-06T06:26:18.171Z,79.95
2017-08-06T06:27:14.435Z,79.93
2017-08-06T06:28:10.739Z,80.06
2017-08-06T06:29:07.016Z,80.01
2017-08-06T06:30:03.276Z,80.03
2017-08-06T06:30:59.551Z,80.05
2017-08-06T06:31:55.814Z,80.08
2017-08-06T06:32:52.084Z,80.06
2017-08-06T06:33:48.335Z,79.99
2017-08-06T06:34:44.590Z,80.02
2017-08-06T06:35:40.843Z,80.02
2017-08-06T06:36:37.140Z,80.00
2017-08-06T06:37:33.408Z,80.04
2017-08-06T06:38:30.048Z,80.08
2017-08-06T06:39:26.308Z,80.05
2017-08-06T06:40:22.587Z,80.06
2017-08-06T06:41:18.845Z,80.06
2017-08-06T06:42:15.130Z,80.06
2017-08-06T06:43:11.409Z,80.02
2017-08-06T06:44:07.681Z,80.02
2017-08-06T06:45:03.954Z,80.01
2017-08-06T06:46:00.216Z,80.06
2017-08-06T06:46:56.523Z,80.04
2017-08-06T06:47:52.779Z,79.95
2017-08-06T06:48:49.026Z,79.91
2017-08-06T06:49:45.292Z,79.84
2017-08-06T06:50:41.538Z,79.76
2017-08-06T06:51:37.801Z,79.72
2017-08-06T06:52:34.083Z,79.71
2017-08-06T06:53:30.342Z,79.69
2017-08-06T06:54:26.596Z,79.67
2017-08-06T06:55:22.842Z,79.63
2017-08-06T06:56:19.095Z,79.70
2017-08-06T06:57:15.351Z,79.61
2017-08-06T06:58:11.595Z,79.54
2017-08-06T06:59:07.844Z,79.41
2017-08-06T07:00:04.100Z,79.27
2017-08-06T07:01:00.363Z,79.09
2017-08-06T07:01:56.620Z,78.96
2017-08-06T07:02:52.884Z,78.81
2017-08-06T07:03:49.184Z,78.75
2017-08-06T07:04:45.422Z,78.67
2017-08-06T07:05:41.680Z,78.60
2017-08-06T07:06:37.927Z,78.54
2017-08-06T07:07:34.194Z,78.48
2017-08-06T07:08:30.499Z,78.46
2017-08-06T07:09:26.747Z,78.49
2017-08-06T07:10:23.010Z,78.42
2017-08-06T07:11:19.264Z,78.42
2017-08-06T07:12:15.507Z,78.40
2017-08-06T07:13:11.784Z,78.40
2017-08-06T07:14:08.023Z,78.41
2017-08-06T07:15:04.280Z,78.37
2017-08-06T07:16:00.527Z,78.36
2017-08-06T07:16:56.786Z,78.36
2017-08-06T07:17:53.058Z,78.36
2017-08-06T07:18:49.311Z,78.24
2017-08-06T07:19:45.593Z,78.12
2017-08-06T07:20:41.834Z,78.05
2017-08-06T07:21:38.090Z,77.96
2017-08-06T07:22:34.340Z,77.87
2017-08-06T07:23:30.735Z,77.81
2017-08-06T07:24:26.998Z,77.78
2017-08-06T07:25:23.251Z,77.67
2017-08-06T07:26:19.491Z,77.47
2017-08-06T07:27:15.739Z,77.38
2017-08-06T07:28:11.991Z,77.31
2017-08-06T07:29:08.273Z,77.27
2017-08-06T07:30:04.521Z,77.17
2017-08-06T07:31:00.783Z,77.08
2017-08-06T07:31:57.032Z,76.94
2017-08-06T07:32:53.284Z,76.75
2017-08-06T07:33:49.556Z,76.51
2017-08-06T07:34:46.023Z,76.39
2017-08-06T07:35:42.298Z,76.17
2017-08-06T07:36:38.553Z,76.01
2017-08-06T07:37:34.811Z,75.82
2017-08-06T07:38:31.050Z,75.69
2017-08-06T07:39:27.319Z,75.49
2017-08-06T07:40:23.583Z,75.48
2017-08-06T07:41:19.841Z,75.23
2017-08-06T07:42:16.083Z,75.23
2017-08-06T07:43:12.351Z,75.17
2017-08-06T07:44:08.628Z,75.00
2017-08-06T07:45:04.908Z,74.91
2017-08-06T07:46:01.156Z,74.75
2017-08-06T07:46:57.448Z,74.49
2017-08-06T07:47:53.747Z,74.37
2017-08-06T07:48:50.019Z,74.31
2017-08-06T07:49:46.299Z,74.17
2017-08-06T07:50:42.573Z,74.14
2017-08-06T07:51:38.838Z,74.13
2017-08-06T07:52:35.111Z,74.05
2017-08-06T07:53:31.383Z,73.97
2017-08-06T07:54:27.690Z,73.91
2017-08-06T07:55:23.950Z,73.86
2017-08-06T07:56:20.211Z,73.77
2017-08-06T07:57:16.475Z,73.65
2017-08-06T07:58:13.632Z,73.63
2017-08-06T07:59:09.895Z,73.56
2017-08-06T08:00:06.203Z,73.51
2017-08-06T08:01:02.455Z,73.51
2017-08-06T08:01:58.723Z,73.50
2017-08-06T08:02:54.998Z,73.51
2017-08-06T08:03:51.262Z,73.66
2017-08-06T08:04:47.524Z,73.70
2017-08-06T08:05:43.808Z,73.70
2017-08-06T08:06:40.069Z,73.71
2017-08-06T08:07:36.346Z,73.76
2017-08-06T08:08:32.603Z,73.93
2017-08-06T08:09:28.863Z,73.98
2017-08-06T08:10:25.147Z,73.91
2017-08-06T08:11:21.407Z,73.94
2017-08-06T08:12:17.667Z,73.88
2017-08-06T08:13:13.928Z,73.68
2017-08-06T08:14:10.179Z,73.46
2017-08-06T08:15:07.347Z,73.27
2017-08-06T08:16:03.624Z,73.10
2017-08-06T08:17:00.340Z,72.99
2017-08-06T08:17:56.598Z,72.87
2017-08-06T08:18:52.858Z,72.70
2017-08-06T08:19:49.131Z,72.52
2017-08-06T08:20:45.440Z,72.37
2017-08-06T08:21:41.703Z,72.27
2017-08-06T08:22:37.959Z,71.92
2017-08-06T08:23:34.211Z,71.74
2017-08-06T08:24:30.484Z,71.55
2017-08-06T08:25:26.739Z,71.47
2017-08-06T08:26:23.011Z,71.37
2017-08-06T08:27:19.394Z,71.21
2017-08-06T08:28:15.671Z,71.18
2017-08-06T08:29:11.945Z,71.07
2017-08-06T08:30:08.204Z,70.90
2017-08-06T08:31:04.491Z,70.86
2017-08-06T08:32:00.829Z,70.65
2017-08-06T08:32:57.096Z,70.45
2017-08-06T08:33:53.364Z,70.43
2017-08-06T08:34:49.644Z,70.22
2017-08-06T08:35:45.912Z,69.95
2017-08-06T08:36:42.182Z,69.59
2017-08-06T08:37:38.443Z,69.58
2017-08-06T08:38:34.715Z,69.26
2017-08-06T08:39:30.992Z,69.02
2017-08-06T08:40:27.259Z,69.04
2017-08-06T08:41:23.513Z,69.02
2017-08-06T08:42:19.782Z,69.08
2017-08-06T08:43:16.034Z,68.93
2017-08-06T08:44:12.302Z,68.77
2017-08-06T08:45:08.554Z,68.89
2017-08-06T08:46:04.823Z,68.91
2017-08-06T08:47:01.095Z,68.89
2017-08-06T08:47:57.362Z,68.79
2017-08-06T08:48:53.610Z,68.69
2017-08-06T08:49:49.898Z,68.54
2017-08-06T08:50:46.152Z,68.55
2017-08-06T08:51:42.428Z,68.66
2017-08-06T08:53:03.306Z,69.23
2017-08-06T08:53:59.553Z,68.85
2017-08-06T08:54:55.818Z,68.95
2017-08-06T08:55:52.095Z,69.05
2017-08-06T08:56:48.378Z,69.08
2017-08-06T08:57:44.618Z,69.00
2017-08-06T08:58:40.875Z,68.87
2017-08-06T08:59:37.111Z,68.70
2017-08-06T09:00:33.370Z,68.75
2017-08-06T09:01:29.623Z,68.65
2017-08-06T09:02:25.887Z,68.65
2017-08-06T09:03:22.130Z,68.57
2017-08-06T09:04:18.386Z,68.37
2017-08-06T09:05:14.626Z,68.20
2017-08-06T09:06:10.896Z,68.10
2017-08-06T09:07:07.159Z,67.99
2017-08-06T09:08:03.432Z,67.76
2017-08-06T09:08:59.682Z,67.63
2017-08-06T09:09:55.919Z,67.36
2017-08-06T09:10:52.181Z,67.27
2017-08-06T09:11:48.436Z,67.49
2017-08-06T09:12:44.694Z,67.47
2017-08-06T09:13:40.934Z,67.52
2017-08-06T09:14:37.185Z,67.32
2017-08-06T09:15:33.427Z,67.22
2017-08-06T09:16:29.684Z,67.27
2017-08-06T09:17:25.971Z,67.33
2017-08-06T09:18:22.243Z,67.15
2017-08-06T09:19:18.495Z,67.27
2017-08-06T09:20:14.739Z,67.34
2017-08-06T09:21:11.019Z,67.35
2017-08-06T09:22:07.283Z,67.71
2017-08-06T09:23:03.558Z,68.12
2017-08-06T09:23:59.820Z,68.56
2017-08-06T09:24:56.066Z,68.60
2017-08-06T09:25:52.315Z,68.48
2017-08-06T09:26:48.562Z,68.08
2017-08-06T09:27:44.830Z,68.01
2017-08-06T09:28:41.082Z,67.75
2017-08-06T09:29:37.329Z,67.59
2017-08-06T09:30:33.571Z,66.94
2017-08-06T09:31:29.815Z,65.90
2017-08-06T09:32:26.062Z,66.16
2017-08-06T09:33:22.326Z,66.07
2017-08-06T09:34:18.573Z,65.11
2017-08-06T09:35:14.818Z,64.05
2017-08-06T09:36:11.059Z,64.55
2017-08-06T09:37:07.305Z,64.22
2017-08-06T09:38:03.578Z,63.99
2017-08-06T09:38:59.832Z,63.97
2017-08-06T09:39:56.079Z,63.55
2017-08-06T09:40:52.326Z,62.87
2017-08-06T09:41:48.587Z,63.20
2017-08-06T09:42:44.845Z,62.40
2017-08-06T09:43:41.103Z,62.33
2017-08-06T09:44:37.358Z,61.88
2017-08-06T09:45:33.594Z,62.07
2017-08-06T09:46:29.843Z,62.35
2017-08-06T09:47:26.102Z,61.00
2017-08-06T09:48:22.377Z,60.05
2017-08-06T09:49:18.635Z,59.96
2017-08-06T09:50:14.899Z,60.12
2017-08-06T09:51:11.147Z,59.80
2017-08-06T09:52:07.407Z,59.28
2017-08-06T09:53:03.650Z,57.81
2017-08-06T09:53:59.913Z,56.15
2017-08-06T09:54:56.171Z,55.82
2017-08-06T09:55:52.431Z,56.57
2017-08-06T09:56:48.890Z,56.08
2017-08-06T09:57:45.164Z,54.36
2017-08-06T09:58:41.431Z,54.10
2017-08-06T09:59:37.699Z,54.03
2017-08-06T10:00:33.938Z,53.96
2017-08-06T10:01:30.189Z,52.68
2017-08-06T10:02:26.440Z,52.12
2017-08-06T10:03:22.682Z,51.81
2017-08-06T10:04:18.987Z,51.87
2017-08-06T10:05:15.231Z,51.69
2017-08-06T10:06:11.486Z,51.15
2017-08-06T10:07:07.734Z,50.51
2017-08-06T10:08:03.978Z,50.15
2017-08-06T10:09:00.234Z,50.23
2017-08-06T10:09:56.506Z,49.88
2017-08-06T10:10:52.751Z,50.52
2017-08-06T10:11:48.999Z,50.85
2017-08-06T10:12:45.259Z,50.95
2017-08-06T10:13:41.503Z,50.53
2017-08-06T10:14:37.771Z,49.60
2017-08-06T10:15:34.027Z,50.01
2017-08-06T10:16:30.278Z,50.30
2017-08-06T10:17:26.600Z,49.89
2017-08-06T10:18:22.851Z,49.66
2017-08-06T10:19:19.104Z,49.13
2017-08-06T10:20:15.362Z,47.60
2017-08-06T10:21:11.606Z,46.69
2017-08-06T10:22:07.855Z,46.56
2017-08-06T10:23:04.119Z,45.76
2017-08-06T10:24:00.370Z,46.22
2017-08-06T10:24:56.633Z,45.08
2017-08-06T10:25:52.873Z,45.42
2017-08-06T10:26:49.118Z,46.00
2017-08-06T10:27:45.362Z,45.50
2017-08-06T10:28:41.603Z,45.07
2017-08-06T10:29:37.842Z,45.32
2017-08-06T10:30:34.110Z,44.81
2017-08-06T10:31:30.355Z,44.78
2017-08-06T10:32:26.605Z,45.09
2017-08-06T10:33:22.874Z,45.58
2017-08-06T10:34:19.131Z,46.02
2017-08-06T10:35:15.399Z,46.21
2017-08-06T10:36:11.659Z,46.27
2017-08-06T10:37:07.913Z,45.73
2017-08-06T10:38:04.166Z,46.02
2017-08-06T10:39:00.425Z,46.12
2017-08-06T10:39:56.683Z,45.43
2017-08-06T10:40:52.932Z,45.51
2017-08-06T10:41:49.198Z,45.38
2017-08-06T10:42:45.458Z,46.00
2017-08-06T10:43:41.720Z,46.45
2017-08-06T10:44:37.977Z,46.88
2017-08-06T10:45:34.222Z,46.96
2017-08-06T10:46:30.501Z,46.88
2017-08-06T10:47:26.758Z,47.09
2017-08-06T10:48:23.015Z,47.16
2017-08-06T10:49:19.263Z,47.06
2017-08-06T10:50:15.515Z,46.79
2017-08-06T10:51:11.793Z,46.41
2017-08-06T10:52:08.067Z,46.19
2017-08-06T10:53:04.324Z,45.83
2017-08-06T10:54:00.583Z,45.85
2017-08-06T10:54:56.868Z,46.24
2017-08-06T10:55:53.142Z,46.87
2017-08-06T10:56:49.423Z,47.43
2017-08-06T10:57:46.030Z,47.46
2017-08-06T10:58:42.299Z,46.86
2017-08-06T10:59:38.567Z,47.35
2017-08-06T11:00:34.838Z,47.67
2017-08-06T11:01:31.091Z,47.66
2017-08-06T11:02:27.362Z,47.61
2017-08-06T11:03:23.622Z,47.74
2017-08-06T11:04:19.878Z,47.40
2017-08-06T11:05:16.126Z,46.35
2017-08-06T11:06:12.390Z,45.26
2017-08-06T11:07:08.631Z,44.42
2017-08-06T11:08:04.898Z,44.60
2017-08-06T11:09:01.158Z,44.51
2017-08-06T11:09:57.412Z,44.77
2017-08-06T11:10:53.677Z,44.98
2017-08-06T11:11:49.938Z,44.44
2017-08-06T11:12:46.190Z,43.27
2017-08-06T11:13:43.409Z,42.82
2017-08-06T11:14:39.670Z,42.59
2017-08-06T11:15:35.930Z,42.61
2017-08-06T11:16:32.231Z,42.30
2017-08-06T11:17:28.487Z,42.50
2017-08-06T11:18:24.763Z,43.06
2017-08-06T11:19:21.018Z,42.85
2017-08-06T11:20:17.266Z,42.51
2017-08-06T11:21:13.519Z,42.30
2017-08-06T11:22:09.783Z,42.83
2017-08-06T11:23:06.056Z,42.91
2017-08-06T11:24:02.337Z,42.75
2017-08-06T11:24:58.595Z,42.18
2017-08-06T11:25:54.851Z,41.81
2017-08-06T11:26:51.112Z,41.08
2017-08-06T11:27:47.370Z,41.05
2017-08-06T11:28:43.651Z,40.50
2017-08-06T11:29:39.926Z,38.70
2017-08-06T11:30:36.181Z,39.45
2017-08-06T11:31:32.431Z,39.66
2017-08-06T11:32:28.699Z,38.99
2017-08-06T11:33:24.957Z,38.12
2017-08-06T11:34:21.222Z,37.34
2017-08-06T11:35:17.481Z,37.35
2017-08-06T11:36:13.743Z,37.35
2017-08-06T11:37:09.998Z,37.66
2017-08-06T11:38:06.275Z,38.33
2017-08-06T11:39:02.558Z,39.16
2017-08-06T11:39:58.942Z,39.38
2017-08-06T11:40:55.208Z,38.76
2017-08-06T11:41:51.458Z,36.85
2017-08-06T11:42:47.698Z,36.57
2017-08-06T11:43:44.282Z,35.17
2017-08-06T11:44:40.544Z,35.24
2017-08-06T14:35:31.971Z,43.62
2017-08-06T14:36:39.047Z,43.18
2017-08-06T14:37:46.098Z,42.61
2017-08-06T14:38:53.163Z,41.74
2017-08-06T14:40:00.220Z,41.24
2017-08-06T14:41:07.259Z,40.13
2017-08-06T14:42:14.296Z,39.91
2017-08-06T14:43:21.367Z,39.90
2017-08-06T14:44:28.417Z,39.87
2017-08-06T14:45:35.526Z,40.18
2017-08-06T14:46:42.582Z,40.71
2017-08-06T14:47:49.638Z,41.60
2017-08-06T14:48:56.707Z,41.56
2017-08-06T14:50:03.760Z,40.67
2017-08-06T14:51:10.803Z,39.53
2017-08-06T14:52:17.867Z,40.27
2017-08-06T14:53:24.930Z,39.80
2017-08-06T14:54:32.043Z,40.27
2017-08-06T14:55:39.090Z,41.15
2017-08-06T14:56:46.192Z,41.68
2017-08-06T14:57:53.247Z,41.98
2017-08-06T14:59:00.322Z,41.92